Northeast Gulf: Past 24 Hour Conditions

 

Banquereau - 44139

08:00 AM ADT 21 October 2014Buoy position: 44.27N 57.08W
This table is a summary of hourly weather conditions for the past 24 hours.
Date / Time
(ADT)
Wind(knots) Wave height(m) Wave period(s) Pressure(kPa) Air tempC) Water tempC)
21 October 2014
8:00 W 16 gust 19 3.2 10.0 102.0 13 14
7:00 W 18 gust 21 3.5 9.0 102.0 13 14
6:00 W 16 gust 19 3.7 10.0 101.9 13 14
5:00 W 18 gust 23 3.9 10.0 101.8 13 14
4:00 W 18 gust 23 4.0 10.0 101.8 13 14
3:00 W 21 gust 25 4.0 10.0 101.7 13 14
2:00 WSW 19 gust 23 4.2 10.0 101.7 13 14
1:00 W 19 gust 25 4.3 10.0 101.6 13 14
0:00 WSW 21 gust 29 4.3 10.0 101.6 13 14
20 October 2014
23:00 WSW 19 gust 27 4.4 10.0 101.5 13 14
22:00 WSW 19 gust 25 4.4 9.0 101.5 13 14
21:00 W 19 gust 23 4.3 10.0 101.4 13 14
20:00 WSW 23 gust 29 5.0 10.0 101.4 13 14
19:00 WSW 25 gust 31 5.4 11.0 101.3 12 14
18:00 W 25 gust 31 5.2 10.0 101.2 12 14
17:00 W 25 gust 33 4.9 10.0 101.1 12 14
16:00 N/A N/A N/A N/A N/A N/A
15:00 WSW 27 gust 35 5.1 10.0 100.9 13 14
14:00 WSW 27 gust 33 4.7 11.0 100.8 13 14
13:00 WSW 25 gust 31 4.9 10.0 100.8 14 14
12:00 WSW 29 gust 37 4.9 9.0 100.7 14 14
11:00 WSW 29 gust 35 4.2 9.0 100.6 15 14
10:00 WSW 29 gust 35 4.0 9.0 100.5 15 14
9:00 SW 19 gust 25 4.3 10.0 100.3 15 14
8:00 SW 23 gust 31 4.3 9.0 100.2 15 14
 
Map of Atlantic - Newfoundland marine weather areas Southwestern Grand Banks - 44138 Banquereau - 44139 Tail of the Bank - 44140 Nickerson Bank - 44251 Northeast Burgeo Bank - 44255 Blanc-Sablon Airport Cap Whittle Chevery Natashquan Airport Heath Point Miscou Island Grand Étang Ingonish Beach North Mountain St.Paul Island J.A. Douglas McCurdy Sydney Airport Charlottetown Airport East Point North Cape Argentia Bonavista Burgeo Cape Race Corner Brook Daniel's Harbour Englee Ferolle Point La Scie Port aux Basques Rocky Harbour Sagona Island St. Anthony Airport St. John's Int'l Airport St. Lawrence Stephenville Airport Twillingate Winterland Wreckhouse Cartwright Airport Mary's Harbour Grates Cove Pool's Island Marticot Island Long Pond Îles de la Madeleine Airport
Legend: buoyBuoy land stationLand Station